sensor_id;sensor_type;location;lat;lon;timestamp;P1;durP1;ratioP1;P2;durP2;ratioP2
83423;SDS011;73355;49.044;8.686;2024-03-02T00:02:16;5.30;;;2.70;;
83423;SDS011;73355;49.044;8.686;2024-03-02T00:04:44;4.65;;;2.53;;
83423;SDS011;73355;49.044;8.686;2024-03-02T00:07:10;5.55;;;2.28;;
83423;SDS011;73355;49.044;8.686;2024-03-02T00:09:48;5.38;;;2.58;;
83423;SDS011;73355;49.044;8.686;2024-03-02T00:12:17;6.03;;;2.80;;
83423;SDS011;73355;49.044;8.686;2024-03-02T00:14:43;6.93;;;2.70;;
83423;SDS011;73355;49.044;8.686;2024-03-02T00:17:09;4.57;;;2.08;;
83423;SDS011;73355;49.044;8.686;2024-03-02T00:19:46;3.95;;;2.42;;
83423;SDS011;73355;49.044;8.686;2024-03-02T00:22:11;4.55;;;2.25;;
83423;SDS011;73355;49.044;8.686;2024-03-02T00:24:37;4.05;;;2.17;;
83423;SDS011;73355;49.044;8.686;2024-03-02T00:27:03;4.40;;;2.38;;
83423;SDS011;73355;49.044;8.686;2024-03-02T00:29:30;5.40;;;2.90;;
83423;SDS011;73355;49.044;8.686;2024-03-02T00:31:56;4.63;;;2.30;;
83423;SDS011;73355;49.044;8.686;2024-03-02T00:34:23;4.88;;;2.47;;
83423;SDS011;73355;49.044;8.686;2024-03-02T00:36:48;5.38;;;2.22;;
83423;SDS011;73355;49.044;8.686;2024-03-02T00:39:17;3.88;;;2.13;;
83423;SDS011;73355;49.044;8.686;2024-03-02T00:41:42;3.42;;;2.33;;
83423;SDS011;73355;49.044;8.686;2024-03-02T00:44:14;4.75;;;2.30;;
83423;SDS011;73355;49.044;8.686;2024-03-02T00:46:41;3.65;;;2.17;;
83423;SDS011;73355;49.044;8.686;2024-03-02T00:49:12;4.72;;;2.53;;
83423;SDS011;73355;49.044;8.686;2024-03-02T00:51:46;4.32;;;2.30;;
83423;SDS011;73355;49.044;8.686;2024-03-02T00:54:15;4.50;;;1.90;;
83423;SDS011;73355;49.044;8.686;2024-03-02T00:56:45;5.63;;;2.20;;
83423;SDS011;73355;49.044;8.686;2024-03-02T00:59:12;5.93;;;2.55;;
83423;SDS011;73355;49.044;8.686;2024-03-02T01:01:37;4.70;;;2.22;;
83423;SDS011;73355;49.044;8.686;2024-03-02T01:04:03;3.92;;;2.30;;
83423;SDS011;73355;49.044;8.686;2024-03-02T01:06:28;5.68;;;2.42;;
83423;SDS011;73355;49.044;8.686;2024-03-02T01:08:54;4.95;;;2.40;;
83423;SDS011;73355;49.044;8.686;2024-03-02T01:11:19;4.50;;;2.58;;
83423;SDS011;73355;49.044;8.686;2024-03-02T01:13:48;4.07;;;2.08;;
83423;SDS011;73355;49.044;8.686;2024-03-02T01:16:14;4.82;;;2.53;;
83423;SDS011;73355;49.044;8.686;2024-03-02T01:21:06;4.28;;;2.35;;
83423;SDS011;73355;49.044;8.686;2024-03-02T01:23:31;4.68;;;2.10;;
83423;SDS011;73355;49.044;8.686;2024-03-02T01:25:56;4.97;;;2.60;;
83423;SDS011;73355;49.044;8.686;2024-03-02T01:28:22;4.50;;;2.10;;
83423;SDS011;73355;49.044;8.686;2024-03-02T01:30:47;3.97;;;2.03;;
83423;SDS011;73355;49.044;8.686;2024-03-02T01:33:14;3.67;;;2.20;;
83423;SDS011;73355;49.044;8.686;2024-03-02T01:35:39;4.28;;;2.22;;
83423;SDS011;73355;49.044;8.686;2024-03-02T01:38:04;3.50;;;1.90;;
83423;SDS011;73355;49.044;8.686;2024-03-02T01:40:36;5.15;;;2.17;;
83423;SDS011;73355;49.044;8.686;2024-03-02T01:43:04;4.40;;;2.10;;
83423;SDS011;73355;49.044;8.686;2024-03-02T01:45:31;5.28;;;2.70;;
83423;SDS011;73355;49.044;8.686;2024-03-02T01:47:57;4.38;;;2.53;;
83423;SDS011;73355;49.044;8.686;2024-03-02T01:50:26;5.18;;;2.47;;
83423;SDS011;73355;49.044;8.686;2024-03-02T01:52:53;5.07;;;2.67;;
83423;SDS011;73355;49.044;8.686;2024-03-02T01:55:19;3.67;;;2.47;;
83423;SDS011;73355;49.044;8.686;2024-03-02T01:57:44;5.10;;;2.27;;
83423;SDS011;73355;49.044;8.686;2024-03-02T02:00:10;5.68;;;2.53;;
83423;SDS011;73355;49.044;8.686;2024-03-02T02:02:36;3.83;;;2.25;;
83423;SDS011;73355;49.044;8.686;2024-03-02T02:05:01;5.75;;;2.90;;
83423;SDS011;73355;49.044;8.686;2024-03-02T02:07:27;6.70;;;2.85;;
83423;SDS011;73355;49.044;8.686;2024-03-02T02:09:52;4.43;;;2.40;;
83423;SDS011;73355;49.044;8.686;2024-03-02T02:12:17;4.82;;;2.70;;
83423;SDS011;73355;49.044;8.686;2024-03-02T02:14:49;5.40;;;2.70;;
83423;SDS011;73355;49.044;8.686;2024-03-02T02:17:15;5.10;;;2.83;;
83423;SDS011;73355;49.044;8.686;2024-03-02T02:19:41;4.72;;;2.58;;
83423;SDS011;73355;49.044;8.686;2024-03-02T02:22:09;6.20;;;3.10;;
83423;SDS011;73355;49.044;8.686;2024-03-02T02:24:35;6.50;;;2.80;;
83423;SDS011;73355;49.044;8.686;2024-03-02T02:27:00;5.15;;;2.83;;
83423;SDS011;73355;49.044;8.686;2024-03-02T02:29:26;5.53;;;3.00;;
83423;SDS011;73355;49.044;8.686;2024-03-02T02:31:52;5.47;;;3.10;;
83423;SDS011;73355;49.044;8.686;2024-03-02T02:34:18;6.45;;;3.17;;
83423;SDS011;73355;49.044;8.686;2024-03-02T02:36:43;6.07;;;2.90;;
83423;SDS011;73355;49.044;8.686;2024-03-02T02:39:10;5.47;;;2.53;;
83423;SDS011;73355;49.044;8.686;2024-03-02T02:41:38;6.07;;;3.00;;
83423;SDS011;73355;49.044;8.686;2024-03-02T02:44:04;6.35;;;2.83;;
83423;SDS011;73355;49.044;8.686;2024-03-02T02:46:29;6.47;;;3.03;;
83423;SDS011;73355;49.044;8.686;2024-03-02T02:48:55;5.80;;;3.22;;
83423;SDS011;73355;49.044;8.686;2024-03-02T02:51:20;6.22;;;3.28;;
83423;SDS011;73355;49.044;8.686;2024-03-02T02:53:46;5.50;;;3.00;;
83423;SDS011;73355;49.044;8.686;2024-03-02T02:56:11;7.05;;;3.13;;
83423;SDS011;73355;49.044;8.686;2024-03-02T02:58:37;4.85;;;3.05;;
83423;SDS011;73355;49.044;8.686;2024-03-02T03:01:02;5.38;;;2.90;;
83423;SDS011;73355;49.044;8.686;2024-03-02T03:03:28;5.25;;;3.10;;
83423;SDS011;73355;49.044;8.686;2024-03-02T03:05:54;5.30;;;2.80;;
83423;SDS011;73355;49.044;8.686;2024-03-02T03:08:20;6.63;;;3.42;;
83423;SDS011;73355;49.044;8.686;2024-03-02T03:10:45;6.00;;;3.20;;
83423;SDS011;73355;49.044;8.686;2024-03-02T03:13:10;7.20;;;3.22;;
83423;SDS011;73355;49.044;8.686;2024-03-02T03:15:36;5.63;;;3.13;;
83423;SDS011;73355;49.044;8.686;2024-03-02T03:18:02;6.65;;;3.50;;
83423;SDS011;73355;49.044;8.686;2024-03-02T03:20:29;8.27;;;3.45;;
83423;SDS011;73355;49.044;8.686;2024-03-02T03:22:55;6.50;;;2.95;;
83423;SDS011;73355;49.044;8.686;2024-03-02T03:25:20;6.60;;;3.10;;
83423;SDS011;73355;49.044;8.686;2024-03-02T03:27:46;7.40;;;3.10;;
83423;SDS011;73355;49.044;8.686;2024-03-02T03:30:12;5.68;;;2.67;;
83423;SDS011;73355;49.044;8.686;2024-03-02T03:32:37;7.28;;;3.10;;
83423;SDS011;73355;49.044;8.686;2024-03-02T03:35:03;5.90;;;2.65;;
83423;SDS011;73355;49.044;8.686;2024-03-02T03:37:29;5.55;;;2.95;;
83423;SDS011;73355;49.044;8.686;2024-03-02T03:39:58;6.35;;;3.65;;
83423;SDS011;73355;49.044;8.686;2024-03-02T03:42:35;5.20;;;2.88;;
83423;SDS011;73355;49.044;8.686;2024-03-02T03:45:03;5.10;;;3.10;;
83423;SDS011;73355;49.044;8.686;2024-03-02T03:47:30;7.05;;;3.10;;
83423;SDS011;73355;49.044;8.686;2024-03-02T03:49:56;4.88;;;2.85;;
83423;SDS011;73355;49.044;8.686;2024-03-02T03:52:22;5.97;;;2.83;;
83423;SDS011;73355;49.044;8.686;2024-03-02T03:54:48;7.85;;;3.47;;
83423;SDS011;73355;49.044;8.686;2024-03-02T03:57:13;5.40;;;3.20;;
83423;SDS011;73355;49.044;8.686;2024-03-02T03:59:39;5.90;;;3.23;;
83423;SDS011;73355;49.044;8.686;2024-03-02T04:02:04;6.05;;;3.28;;
83423;SDS011;73355;49.044;8.686;2024-03-02T04:04:30;7.90;;;2.90;;
83423;SDS011;73355;49.044;8.686;2024-03-02T04:06:55;6.25;;;3.13;;
83423;SDS011;73355;49.044;8.686;2024-03-02T04:09:20;5.97;;;3.47;;
83423;SDS011;73355;49.044;8.686;2024-03-02T04:11:46;5.93;;;3.07;;
83423;SDS011;73355;49.044;8.686;2024-03-02T04:14:11;5.45;;;3.10;;
83423;SDS011;73355;49.044;8.686;2024-03-02T04:16:37;7.05;;;3.42;;
83423;SDS011;73355;49.044;8.686;2024-03-02T04:21:29;7.15;;;3.30;;
83423;SDS011;73355;49.044;8.686;2024-03-02T04:23:55;9.05;;;4.18;;
83423;SDS011;73355;49.044;8.686;2024-03-02T04:26:24;7.22;;;3.40;;
83423;SDS011;73355;49.044;8.686;2024-03-02T04:28:50;6.90;;;3.65;;
83423;SDS011;73355;49.044;8.686;2024-03-02T04:31:16;6.68;;;3.60;;
83423;SDS011;73355;49.044;8.686;2024-03-02T04:33:42;10.93;;;4.72;;
83423;SDS011;73355;49.044;8.686;2024-03-02T04:36:07;8.02;;;3.97;;
83423;SDS011;73355;49.044;8.686;2024-03-02T04:38:36;9.57;;;4.10;;
83423;SDS011;73355;49.044;8.686;2024-03-02T04:41:01;10.70;;;3.70;;
83423;SDS011;73355;49.044;8.686;2024-03-02T04:43:27;8.80;;;4.05;;
83423;SDS011;73355;49.044;8.686;2024-03-02T04:45:52;7.88;;;3.90;;
83423;SDS011;73355;49.044;8.686;2024-03-02T04:48:18;8.20;;;3.78;;
83423;SDS011;73355;49.044;8.686;2024-03-02T04:50:44;10.40;;;4.47;;
83423;SDS011;73355;49.044;8.686;2024-03-02T04:53:09;7.20;;;3.75;;
83423;SDS011;73355;49.044;8.686;2024-03-02T04:55:35;8.27;;;4.22;;
83423;SDS011;73355;49.044;8.686;2024-03-02T04:58:20;8.48;;;4.03;;
83423;SDS011;73355;49.044;8.686;2024-03-02T05:00:45;9.90;;;4.50;;
83423;SDS011;73355;49.044;8.686;2024-03-02T05:03:14;8.30;;;4.30;;
83423;SDS011;73355;49.044;8.686;2024-03-02T05:05:39;10.48;;;4.28;;
83423;SDS011;73355;49.044;8.686;2024-03-02T05:08:05;10.32;;;4.10;;
83423;SDS011;73355;49.044;8.686;2024-03-02T05:10:31;8.20;;;4.05;;
83423;SDS011;73355;49.044;8.686;2024-03-02T05:12:56;8.15;;;3.92;;
83423;SDS011;73355;49.044;8.686;2024-03-02T05:15:23;10.40;;;4.13;;
83423;SDS011;73355;49.044;8.686;2024-03-02T05:17:49;10.93;;;4.93;;
83423;SDS011;73355;49.044;8.686;2024-03-02T05:20:15;8.77;;;4.23;;
83423;SDS011;73355;49.044;8.686;2024-03-02T05:22:40;7.93;;;4.23;;
83423;SDS011;73355;49.044;8.686;2024-03-02T05:25:06;8.60;;;4.15;;
83423;SDS011;73355;49.044;8.686;2024-03-02T05:27:32;8.98;;;4.32;;
83423;SDS011;73355;49.044;8.686;2024-03-02T05:29:58;8.82;;;4.55;;
83423;SDS011;73355;49.044;8.686;2024-03-02T05:32:24;9.77;;;4.50;;
83423;SDS011;73355;49.044;8.686;2024-03-02T05:34:49;10.33;;;4.40;;
83423;SDS011;73355;49.044;8.686;2024-03-02T05:37:16;9.05;;;4.45;;
83423;SDS011;73355;49.044;8.686;2024-03-02T05:39:42;8.77;;;4.32;;
83423;SDS011;73355;49.044;8.686;2024-03-02T05:42:08;8.65;;;3.97;;
83423;SDS011;73355;49.044;8.686;2024-03-02T05:44:36;9.23;;;4.15;;
83423;SDS011;73355;49.044;8.686;2024-03-02T05:47:01;8.60;;;4.35;;
83423;SDS011;73355;49.044;8.686;2024-03-02T05:49:28;8.23;;;4.22;;
83423;SDS011;73355;49.044;8.686;2024-03-02T05:51:53;8.93;;;4.38;;
83423;SDS011;73355;49.044;8.686;2024-03-02T05:54:18;9.02;;;4.30;;
83423;SDS011;73355;49.044;8.686;2024-03-02T05:56:44;9.40;;;4.38;;
83423;SDS011;73355;49.044;8.686;2024-03-02T05:59:09;8.07;;;4.00;;
83423;SDS011;73355;49.044;8.686;2024-03-02T06:01:44;9.57;;;4.53;;
83423;SDS011;73355;49.044;8.686;2024-03-02T06:04:16;8.85;;;4.50;;
83423;SDS011;73355;49.044;8.686;2024-03-02T06:06:42;9.55;;;4.40;;
83423;SDS011;73355;49.044;8.686;2024-03-02T06:09:07;8.55;;;4.20;;
83423;SDS011;73355;49.044;8.686;2024-03-02T06:11:33;9.82;;;4.43;;
83423;SDS011;73355;49.044;8.686;2024-03-02T06:14:01;8.43;;;4.40;;
83423;SDS011;73355;49.044;8.686;2024-03-02T06:16:27;10.90;;;4.47;;
83423;SDS011;73355;49.044;8.686;2024-03-02T06:18:56;9.30;;;4.30;;
83423;SDS011;73355;49.044;8.686;2024-03-02T06:21:23;13.60;;;5.70;;
83423;SDS011;73355;49.044;8.686;2024-03-02T06:23:48;11.18;;;5.10;;
83423;SDS011;73355;49.044;8.686;2024-03-02T06:26:14;9.90;;;5.00;;
83423;SDS011;73355;49.044;8.686;2024-03-02T06:28:39;11.68;;;4.70;;
83423;SDS011;73355;49.044;8.686;2024-03-02T06:31:04;10.20;;;4.80;;
83423;SDS011;73355;49.044;8.686;2024-03-02T06:33:30;8.90;;;4.70;;
83423;SDS011;73355;49.044;8.686;2024-03-02T06:35:56;12.15;;;4.80;;
83423;SDS011;73355;49.044;8.686;2024-03-02T06:38:21;9.47;;;4.53;;
83423;SDS011;73355;49.044;8.686;2024-03-02T06:40:46;13.07;;;6.30;;
83423;SDS011;73355;49.044;8.686;2024-03-02T06:43:12;12.48;;;5.50;;
83423;SDS011;73355;49.044;8.686;2024-03-02T06:45:37;13.17;;;5.87;;
83423;SDS011;73355;49.044;8.686;2024-03-02T06:48:03;13.57;;;4.70;;
83423;SDS011;73355;49.044;8.686;2024-03-02T06:50:28;12.18;;;5.15;;
83423;SDS011;73355;49.044;8.686;2024-03-02T06:52:54;11.82;;;5.63;;
83423;SDS011;73355;49.044;8.686;2024-03-02T06:55:21;11.15;;;5.32;;
83423;SDS011;73355;49.044;8.686;2024-03-02T06:57:46;12.73;;;5.85;;
83423;SDS011;73355;49.044;8.686;2024-03-02T07:00:12;10.57;;;4.47;;
83423;SDS011;73355;49.044;8.686;2024-03-02T07:02:47;10.77;;;5.00;;
83423;SDS011;73355;49.044;8.686;2024-03-02T07:05:13;11.70;;;5.25;;
83423;SDS011;73355;49.044;8.686;2024-03-02T07:07:38;12.85;;;5.53;;
83423;SDS011;73355;49.044;8.686;2024-03-02T07:10:04;11.03;;;5.00;;
83423;SDS011;73355;49.044;8.686;2024-03-02T07:12:30;11.18;;;5.22;;
83423;SDS011;73355;49.044;8.686;2024-03-02T07:14:56;12.88;;;5.57;;
83423;SDS011;73355;49.044;8.686;2024-03-02T07:17:27;11.50;;;5.45;;
83423;SDS011;73355;49.044;8.686;2024-03-02T07:19:53;12.65;;;5.18;;
83423;SDS011;73355;49.044;8.686;2024-03-02T07:22:19;12.73;;;5.40;;
83423;SDS011;73355;49.044;8.686;2024-03-02T07:24:44;12.98;;;5.78;;
83423;SDS011;73355;49.044;8.686;2024-03-02T07:27:11;10.38;;;5.22;;
83423;SDS011;73355;49.044;8.686;2024-03-02T07:29:37;10.70;;;5.55;;
83423;SDS011;73355;49.044;8.686;2024-03-02T07:32:03;11.73;;;5.00;;
83423;SDS011;73355;49.044;8.686;2024-03-02T07:34:28;11.25;;;5.28;;
83423;SDS011;73355;49.044;8.686;2024-03-02T07:36:54;12.20;;;5.82;;
83423;SDS011;73355;49.044;8.686;2024-03-02T07:39:20;14.05;;;5.53;;
83423;SDS011;73355;49.044;8.686;2024-03-02T07:41:46;10.55;;;4.85;;
83423;SDS011;73355;49.044;8.686;2024-03-02T07:44:12;12.00;;;5.22;;
83423;SDS011;73355;49.044;8.686;2024-03-02T07:46:40;10.63;;;5.28;;
83423;SDS011;73355;49.044;8.686;2024-03-02T07:51:31;11.77;;;5.40;;
83423;SDS011;73355;49.044;8.686;2024-03-02T07:53:56;13.93;;;6.17;;
83423;SDS011;73355;49.044;8.686;2024-03-02T07:56:21;12.27;;;4.93;;
83423;SDS011;73355;49.044;8.686;2024-03-02T07:58:48;10.38;;;5.07;;
83423;SDS011;73355;49.044;8.686;2024-03-02T08:01:14;11.02;;;5.32;;
83423;SDS011;73355;49.044;8.686;2024-03-02T08:03:39;12.05;;;5.15;;
83423;SDS011;73355;49.044;8.686;2024-03-02T08:06:04;12.70;;;5.30;;
83423;SDS011;73355;49.044;8.686;2024-03-02T08:08:30;12.10;;;5.30;;
83423;SDS011;73355;49.044;8.686;2024-03-02T08:10:55;10.73;;;5.20;;
83423;SDS011;73355;49.044;8.686;2024-03-02T08:13:20;11.63;;;5.32;;
83423;SDS011;73355;49.044;8.686;2024-03-02T08:15:46;8.33;;;4.70;;
83423;SDS011;73355;49.044;8.686;2024-03-02T08:18:11;10.70;;;4.63;;
83423;SDS011;73355;49.044;8.686;2024-03-02T08:20:37;9.20;;;5.00;;
83423;SDS011;73355;49.044;8.686;2024-03-02T08:23:02;11.27;;;4.97;;
83423;SDS011;73355;49.044;8.686;2024-03-02T08:25:27;9.05;;;4.45;;
83423;SDS011;73355;49.044;8.686;2024-03-02T08:27:53;8.53;;;4.33;;
83423;SDS011;73355;49.044;8.686;2024-03-02T08:30:18;8.70;;;4.07;;
83423;SDS011;73355;49.044;8.686;2024-03-02T08:32:43;7.63;;;3.87;;
83423;SDS011;73355;49.044;8.686;2024-03-02T08:37:36;6.87;;;3.50;;
83423;SDS011;73355;49.044;8.686;2024-03-02T08:40:04;7.78;;;3.65;;
83423;SDS011;73355;49.044;8.686;2024-03-02T08:42:32;7.53;;;2.78;;
83423;SDS011;73355;49.044;8.686;2024-03-02T08:44:57;5.68;;;3.03;;
83423;SDS011;73355;49.044;8.686;2024-03-02T08:47:23;6.88;;;3.20;;
83423;SDS011;73355;49.044;8.686;2024-03-02T08:49:48;6.90;;;3.30;;
83423;SDS011;73355;49.044;8.686;2024-03-02T08:52:13;7.97;;;3.73;;
83423;SDS011;73355;49.044;8.686;2024-03-02T08:54:39;6.18;;;3.05;;
83423;SDS011;73355;49.044;8.686;2024-03-02T08:57:04;7.20;;;3.40;;
83423;SDS011;73355;49.044;8.686;2024-03-02T08:59:30;6.15;;;3.35;;
83423;SDS011;73355;49.044;8.686;2024-03-02T09:01:56;5.25;;;3.17;;
83423;SDS011;73355;49.044;8.686;2024-03-02T09:04:22;5.80;;;3.17;;
83423;SDS011;73355;49.044;8.686;2024-03-02T09:06:47;8.40;;;3.75;;
83423;SDS011;73355;49.044;8.686;2024-03-02T09:09:13;6.05;;;3.10;;
83423;SDS011;73355;49.044;8.686;2024-03-02T09:11:38;4.13;;;2.70;;
83423;SDS011;73355;49.044;8.686;2024-03-02T09:14:03;6.70;;;3.30;;
83423;SDS011;73355;49.044;8.686;2024-03-02T09:16:30;6.93;;;3.20;;
83423;SDS011;73355;49.044;8.686;2024-03-02T09:18:56;7.40;;;3.70;;
83423;SDS011;73355;49.044;8.686;2024-03-02T09:21:21;6.82;;;3.55;;
83423;SDS011;73355;49.044;8.686;2024-03-02T09:23:47;6.43;;;3.60;;
83423;SDS011;73355;49.044;8.686;2024-03-02T09:26:13;6.60;;;3.55;;
83423;SDS011;73355;49.044;8.686;2024-03-02T09:28:42;5.78;;;3.15;;
83423;SDS011;73355;49.044;8.686;2024-03-02T09:31:08;5.95;;;3.10;;
83423;SDS011;73355;49.044;8.686;2024-03-02T09:33:33;6.30;;;3.37;;
83423;SDS011;73355;49.044;8.686;2024-03-02T09:35:58;6.20;;;2.50;;
83423;SDS011;73355;49.044;8.686;2024-03-02T09:38:23;5.23;;;3.10;;
83423;SDS011;73355;49.044;8.686;2024-03-02T09:40:49;7.22;;;3.20;;
83423;SDS011;73355;49.044;8.686;2024-03-02T09:43:14;5.33;;;2.90;;
83423;SDS011;73355;49.044;8.686;2024-03-02T09:45:39;6.85;;;3.00;;
83423;SDS011;73355;49.044;8.686;2024-03-02T09:48:05;6.53;;;3.20;;
83423;SDS011;73355;49.044;8.686;2024-03-02T09:50:31;5.35;;;3.42;;
83423;SDS011;73355;49.044;8.686;2024-03-02T09:52:56;5.37;;;3.30;;
83423;SDS011;73355;49.044;8.686;2024-03-02T09:55:21;4.83;;;2.90;;
83423;SDS011;73355;49.044;8.686;2024-03-02T09:57:47;4.57;;;3.03;;
83423;SDS011;73355;49.044;8.686;2024-03-02T10:00:15;3.75;;;2.33;;
83423;SDS011;73355;49.044;8.686;2024-03-02T10:02:41;4.55;;;2.47;;
83423;SDS011;73355;49.044;8.686;2024-03-02T10:05:07;4.38;;;2.60;;
83423;SDS011;73355;49.044;8.686;2024-03-02T10:07:33;4.93;;;2.90;;
83423;SDS011;73355;49.044;8.686;2024-03-02T10:09:58;3.97;;;2.43;;
83423;SDS011;73355;49.044;8.686;2024-03-02T10:12:38;4.47;;;2.90;;
83423;SDS011;73355;49.044;8.686;2024-03-02T10:15:03;4.90;;;3.00;;
83423;SDS011;73355;49.044;8.686;2024-03-02T10:17:32;4.60;;;2.50;;
83423;SDS011;73355;49.044;8.686;2024-03-02T10:19:58;4.53;;;2.65;;
83423;SDS011;73355;49.044;8.686;2024-03-02T10:22:23;5.13;;;2.80;;
83423;SDS011;73355;49.044;8.686;2024-03-02T10:24:48;4.03;;;2.30;;
83423;SDS011;73355;49.044;8.686;2024-03-02T10:27:17;4.32;;;2.50;;
83423;SDS011;73355;49.044;8.686;2024-03-02T10:29:47;3.55;;;2.05;;
83423;SDS011;73355;49.044;8.686;2024-03-02T10:32:13;3.30;;;1.92;;
83423;SDS011;73355;49.044;8.686;2024-03-02T10:34:42;3.50;;;1.90;;
83423;SDS011;73355;49.044;8.686;2024-03-02T10:37:10;2.83;;;1.70;;
83423;SDS011;73355;49.044;8.686;2024-03-02T10:39:36;4.70;;;2.20;;
83423;SDS011;73355;49.044;8.686;2024-03-02T10:42:05;2.72;;;1.80;;
83423;SDS011;73355;49.044;8.686;2024-03-02T10:44:31;3.30;;;1.98;;
83423;SDS011;73355;49.044;8.686;2024-03-02T10:47:01;4.40;;;1.70;;
83423;SDS011;73355;49.044;8.686;2024-03-02T10:49:28;11.98;;;2.65;;
83423;SDS011;73355;49.044;8.686;2024-03-02T10:52:00;5.70;;;2.03;;
83423;SDS011;73355;49.044;8.686;2024-03-02T10:54:26;6.05;;;1.85;;
83423;SDS011;73355;49.044;8.686;2024-03-02T10:56:54;3.80;;;1.77;;
83423;SDS011;73355;49.044;8.686;2024-03-02T10:59:35;2.40;;;1.50;;
83423;SDS011;73355;49.044;8.686;2024-03-02T11:02:02;2.60;;;1.60;;
83423;SDS011;73355;49.044;8.686;2024-03-02T11:04:29;2.83;;;1.67;;
83423;SDS011;73355;49.044;8.686;2024-03-02T11:07:03;1.98;;;0.90;;
83423;SDS011;73355;49.044;8.686;2024-03-02T11:09:30;1.80;;;0.98;;
83423;SDS011;73355;49.044;8.686;2024-03-02T11:12:00;2.95;;;0.90;;
83423;SDS011;73355;49.044;8.686;2024-03-02T11:14:40;2.35;;;0.75;;
83423;SDS011;73355;49.044;8.686;2024-03-02T11:17:08;1.30;;;0.80;;
83423;SDS011;73355;49.044;8.686;2024-03-02T11:19:34;1.90;;;0.65;;
83423;SDS011;73355;49.044;8.686;2024-03-02T11:22:02;1.13;;;0.60;;
83423;SDS011;73355;49.044;8.686;2024-03-02T11:24:29;1.02;;;0.60;;
83423;SDS011;73355;49.044;8.686;2024-03-02T11:27:01;1.23;;;0.57;;
83423;SDS011;73355;49.044;8.686;2024-03-02T11:32:04;1.35;;;0.80;;
83423;SDS011;73355;49.044;8.686;2024-03-02T11:34:30;1.50;;;0.50;;
83423;SDS011;73355;49.044;8.686;2024-03-02T11:36:56;2.47;;;0.70;;
83423;SDS011;73355;49.044;8.686;2024-03-02T11:39:24;1.30;;;0.80;;
83423;SDS011;73355;49.044;8.686;2024-03-02T11:41:50;1.95;;;0.93;;
83423;SDS011;73355;49.044;8.686;2024-03-02T11:44:16;2.30;;;0.75;;
83423;SDS011;73355;49.044;8.686;2024-03-02T11:49:06;2.13;;;0.97;;
83423;SDS011;73355;49.044;8.686;2024-03-02T11:51:33;2.20;;;0.90;;
83423;SDS011;73355;49.044;8.686;2024-03-02T11:54:00;2.67;;;0.95;;
83423;SDS011;73355;49.044;8.686;2024-03-02T11:56:27;1.83;;;1.10;;
83423;SDS011;73355;49.044;8.686;2024-03-02T11:58:53;2.28;;;1.17;;
83423;SDS011;73355;49.044;8.686;2024-03-02T12:03:44;2.00;;;1.00;;
83423;SDS011;73355;49.044;8.686;2024-03-02T12:08:41;1.63;;;1.10;;
83423;SDS011;73355;49.044;8.686;2024-03-02T12:11:06;2.25;;;1.00;;
83423;SDS011;73355;49.044;8.686;2024-03-02T12:13:32;2.33;;;1.30;;
83423;SDS011;73355;49.044;8.686;2024-03-02T12:15:58;1.98;;;1.30;;
83423;SDS011;73355;49.044;8.686;2024-03-02T12:18:24;1.75;;;1.00;;
83423;SDS011;73355;49.044;8.686;2024-03-02T12:23:22;2.10;;;1.20;;
83423;SDS011;73355;49.044;8.686;2024-03-02T12:25:47;2.78;;;1.50;;
83423;SDS011;73355;49.044;8.686;2024-03-02T12:30:38;2.40;;;1.23;;
83423;SDS011;73355;49.044;8.686;2024-03-02T12:33:09;2.05;;;1.40;;
83423;SDS011;73355;49.044;8.686;2024-03-02T12:35:36;1.95;;;1.20;;
83423;SDS011;73355;49.044;8.686;2024-03-02T12:38:01;3.17;;;1.30;;
83423;SDS011;73355;49.044;8.686;2024-03-02T12:42:52;1.35;;;0.90;;
83423;SDS011;73355;49.044;8.686;2024-03-02T12:47:48;1.70;;;1.00;;
83423;SDS011;73355;49.044;8.686;2024-03-02T12:50:15;1.92;;;1.20;;
83423;SDS011;73355;49.044;8.686;2024-03-02T12:55:06;1.70;;;1.03;;
83423;SDS011;73355;49.044;8.686;2024-03-02T13:00:01;1.90;;;1.00;;
83423;SDS011;73355;49.044;8.686;2024-03-02T13:02:34;1.75;;;0.90;;
83423;SDS011;73355;49.044;8.686;2024-03-02T13:05:00;1.60;;;0.90;;
83423;SDS011;73355;49.044;8.686;2024-03-02T13:09:51;3.35;;;1.10;;
83423;SDS011;73355;49.044;8.686;2024-03-02T13:12:17;1.75;;;1.10;;
83423;SDS011;73355;49.044;8.686;2024-03-02T13:14:44;2.45;;;1.15;;
83423;SDS011;73355;49.044;8.686;2024-03-02T13:22:22;2.30;;;1.23;;
83423;SDS011;73355;49.044;8.686;2024-03-02T13:27:26;2.03;;;1.30;;
83423;SDS011;73355;49.044;8.686;2024-03-02T13:32:17;1.80;;;1.07;;
83423;SDS011;73355;49.044;8.686;2024-03-02T13:37:08;2.30;;;1.23;;
83423;SDS011;73355;49.044;8.686;2024-03-02T13:42:05;4.20;;;1.15;;
83423;SDS011;73355;49.044;8.686;2024-03-02T13:44:40;2.22;;;1.00;;
83423;SDS011;73355;49.044;8.686;2024-03-02T13:47:09;1.83;;;1.10;;
83423;SDS011;73355;49.044;8.686;2024-03-02T13:52:04;2.20;;;0.95;;
83423;SDS011;73355;49.044;8.686;2024-03-02T13:54:42;3.83;;;0.90;;
83423;SDS011;73355;49.044;8.686;2024-03-02T13:57:09;2.33;;;1.20;;
83423;SDS011;73355;49.044;8.686;2024-03-02T13:59:35;1.73;;;1.00;;
83423;SDS011;73355;49.044;8.686;2024-03-02T14:04:29;1.98;;;1.00;;
83423;SDS011;73355;49.044;8.686;2024-03-02T14:06:57;1.65;;;0.95;;
83423;SDS011;73355;49.044;8.686;2024-03-02T14:11:49;1.35;;;0.82;;
83423;SDS011;73355;49.044;8.686;2024-03-02T14:14:15;3.67;;;1.08;;
83423;SDS011;73355;49.044;8.686;2024-03-02T14:19:05;1.27;;;0.70;;
83423;SDS011;73355;49.044;8.686;2024-03-02T14:23:56;1.65;;;0.90;;
83423;SDS011;73355;49.044;8.686;2024-03-02T14:28:47;0.97;;;0.60;;
83423;SDS011;73355;49.044;8.686;2024-03-02T14:33:38;1.10;;;0.65;;
83423;SDS011;73355;49.044;8.686;2024-03-02T14:36:03;1.52;;;0.73;;
83423;SDS011;73355;49.044;8.686;2024-03-02T14:40:54;1.47;;;0.60;;
83423;SDS011;73355;49.044;8.686;2024-03-02T14:45:45;1.90;;;0.70;;
83423;SDS011;73355;49.044;8.686;2024-03-02T14:50:36;1.10;;;0.60;;
83423;SDS011;73355;49.044;8.686;2024-03-02T14:55:27;0.98;;;0.50;;
83423;SDS011;73355;49.044;8.686;2024-03-02T15:00:18;1.10;;;0.60;;
83423;SDS011;73355;49.044;8.686;2024-03-02T15:05:09;1.37;;;0.67;;
83423;SDS011;73355;49.044;8.686;2024-03-02T15:09:59;1.23;;;0.60;;
83423;SDS011;73355;49.044;8.686;2024-03-02T15:14:50;1.37;;;0.67;;
83423;SDS011;73355;49.044;8.686;2024-03-02T15:19:44;1.20;;;0.70;;
83423;SDS011;73355;49.044;8.686;2024-03-02T15:22:10;1.58;;;0.47;;
83423;SDS011;73355;49.044;8.686;2024-03-02T15:24:36;1.00;;;0.60;;
83423;SDS011;73355;49.044;8.686;2024-03-02T15:27:02;2.17;;;0.70;;
83423;SDS011;73355;49.044;8.686;2024-03-02T15:29:32;0.80;;;0.50;;
83423;SDS011;73355;49.044;8.686;2024-03-02T15:31:57;2.07;;;0.90;;
83423;SDS011;73355;49.044;8.686;2024-03-02T15:34:23;1.65;;;0.63;;
83423;SDS011;73355;49.044;8.686;2024-03-02T15:39:14;1.77;;;0.95;;
83423;SDS011;73355;49.044;8.686;2024-03-02T15:44:07;1.70;;;0.80;;
83423;SDS011;73355;49.044;8.686;2024-03-02T15:46:34;1.27;;;0.70;;
83423;SDS011;73355;49.044;8.686;2024-03-02T15:49:00;1.40;;;0.70;;
83423;SDS011;73355;49.044;8.686;2024-03-02T15:51:26;1.67;;;0.70;;
83423;SDS011;73355;49.044;8.686;2024-03-02T15:56:17;1.40;;;0.77;;
83423;SDS011;73355;49.044;8.686;2024-03-02T16:01:07;1.60;;;0.90;;
83423;SDS011;73355;49.044;8.686;2024-03-02T16:05:58;1.57;;;0.87;;
83423;SDS011;73355;49.044;8.686;2024-03-02T16:10:48;1.73;;;0.90;;
83423;SDS011;73355;49.044;8.686;2024-03-02T16:15:39;2.13;;;1.10;;
83423;SDS011;73355;49.044;8.686;2024-03-02T16:20:30;2.47;;;0.80;;
83423;SDS011;73355;49.044;8.686;2024-03-02T16:22:55;1.50;;;0.85;;
83423;SDS011;73355;49.044;8.686;2024-03-02T16:27:49;1.73;;;0.90;;
83423;SDS011;73355;49.044;8.686;2024-03-02T16:30:14;2.90;;;0.90;;
83423;SDS011;73355;49.044;8.686;2024-03-02T16:35:06;0.95;;;0.60;;
83423;SDS011;73355;49.044;8.686;2024-03-02T16:37:32;1.45;;;0.70;;